VNKT

Details ICAO VNKT (KTM)
Name Kathmandu Tribhuvan Intl
Region Nepal
Timezone Asia/Kathmandu (UTC+5.8)
Plans Departing 2586
Arriving 2456
Stats Elevation 4,395 ft / 1,340 m (AMSL)
Location 27.696600° 85.359200°
Runways 1
Magnetic Variation 0.663° E
Sunrise 2021-05-16 23:29:54 UTC / 2021-05-17 05:14:54 Local
Sunset 2021-05-17 13:02:48 UTC / 2021-05-17 18:47:48 Local
Advertisement - Login to hide

Runways

ID Width Length Bearing (true/mag) Surface Threshold Overrun Markings Lighting
02 151 ft / 46 m 10,016 ft / 3,053 m 21.96° / 21.29° ASPHALT 0 ft / 0 m 0 ft / 0 m PREC-APP EDGE THRESHOLD SALS REIL-OMNI
20 151 ft / 46 m 10,016 ft / 3,053 m 201.96° / 201.30° ASPHALT 404 ft / 123 m 0 ft / 0 m PREC-APP EDGE THRESHOLD REIL-OMNI

Map

Weather


0- 5 10 15 20 25 30 35+ Temperature / °C

Clouds and Precipitation
Forecast for 2021-03-22 12:00 UTC. Updated 2 months ago

Ground ~20,000 ft ~40,000 ft Winds

METAR

VNKT 162150Z 09005KT 7000 FEW015 17/14 Q1015 NOSIG

TAF

TAF VNKT 161700Z 1618/1718 130003KT 8000 FEW015 BECMG 1700/1702 VRB02KT 5000 BR FEW010 SCT100 BECMG 1704/1705 15004KT 7000 FEW010 BECMG 1707/1708 24008KT 8000 FEW020 SCT100 BECMG 1714/1715 14003KT 7000 FEW015 SCT100

Frequencies

Recorded 127.00 MHz KATHMANDU ATIS
Tower 118.10 MHz KATHMANDU TWR
Ground 121.90 MHz KATHMANDU GND
Approach 125.10 MHz KATHMANDU APP
Warning: Do not use this data for real-world aviation or navigation. No guarantee of current accuracy is given.